createdAt,value
2023-04-02T00:00:35.720Z,97098.84
2023-04-02T00:03:11.883Z,97105.22
2023-04-02T00:05:53.531Z,97111.53
2023-04-02T00:08:23.795Z,97113.94
2023-04-02T00:11:02.095Z,97120.22
2023-04-02T00:13:34.018Z,97124.75
2023-04-02T00:16:06.144Z,97132.69
2023-04-02T00:18:35.364Z,97137.00
2023-04-02T00:21:06.090Z,97147.03
2023-04-02T00:23:38.529Z,97146.94
2023-04-02T00:26:34.821Z,97155.50
2023-04-02T00:29:04.442Z,97150.47
2023-04-02T00:31:35.462Z,97160.69
2023-04-02T00:34:05.198Z,97164.03
2023-04-02T00:36:34.884Z,97174.19
2023-04-02T00:39:07.032Z,97167.34
2023-04-02T00:41:39.488Z,97180.53
2023-04-02T00:44:13.187Z,97173.72
2023-04-02T00:46:47.528Z,97183.66
2023-04-02T00:49:18.893Z,97189.38
2023-04-02T00:51:47.197Z,97192.41
2023-04-02T00:54:17.569Z,97196.38
2023-04-02T00:56:48.844Z,97197.91
2023-04-02T00:59:31.464Z,97199.44
2023-04-02T01:02:26.929Z,97200.94
2023-04-02T01:05:03.652Z,97206.81
2023-04-02T01:08:05.746Z,97212.97
2023-04-02T01:10:53.483Z,97205.13
2023-04-02T01:13:37.763Z,97220.78
2023-04-02T01:16:20.641Z,97217.91
2023-04-02T01:19:04.162Z,97232.03
2023-04-02T01:21:42.976Z,97226.38
2023-04-02T01:24:15.012Z,97229.09
2023-04-02T01:26:47.138Z,97225.13
2023-04-02T01:29:35.561Z,97222.69
2023-04-02T01:32:15.567Z,97245.63
2023-04-02T01:34:47.565Z,97248.63
2023-04-02T01:37:53.416Z,97254.66
2023-04-02T01:40:34.005Z,97253.25
2023-04-02T01:43:19.073Z,97260.69
2023-04-02T01:45:47.309Z,97265.94
2023-04-02T01:48:20.184Z,97268.19
2023-04-02T01:50:49.830Z,97274.66
2023-04-02T01:53:19.171Z,97276.69
2023-04-02T01:56:00.333Z,97284.09
2023-04-02T01:58:32.927Z,97272.50
2023-04-02T02:01:22.176Z,97292.03
2023-04-02T02:03:49.934Z,97296.44
2023-04-02T02:06:18.429Z,97303.06
2023-04-02T02:08:57.836Z,97299.84
2023-04-02T02:11:28.641Z,97311.22
2023-04-02T02:13:58.258Z,97311.31
2023-04-02T02:16:30.169Z,97315.03
2023-04-02T02:19:03.058Z,97318.78
2023-04-02T02:21:42.442Z,97329.41
2023-04-02T02:24:29.208Z,97327.22
2023-04-02T02:27:03.777Z,97338.59
2023-04-02T02:29:33.955Z,97328.78
2023-04-02T02:32:01.816Z,97341.88
2023-04-02T02:34:36.216Z,97340.91
2023-04-02T02:37:12.890Z,97349.34
2023-04-02T02:39:43.116Z,97359.47
2023-04-02T02:42:23.151Z,97356.75
2023-04-02T02:44:52.120Z,97368.66
2023-04-02T02:47:26.051Z,97367.66
2023-04-02T02:49:55.264Z,97372.56
2023-04-02T02:52:35.045Z,97373.56
2023-04-02T02:55:19.597Z,97389.13
2023-04-02T02:58:16.350Z,97395.28
2023-04-02T03:00:44.821Z,97398.53
2023-04-02T03:03:15.453Z,97395.34
2023-04-02T03:05:42.933Z,97404.50
2023-04-02T03:08:14.918Z,97403.78
2023-04-02T03:11:19.669Z,97410.94
2023-04-02T03:13:49.349Z,97415.88
2023-04-02T03:16:19.760Z,97422.06
2023-04-02T03:18:56.978Z,97420.63
2023-04-02T03:21:31.422Z,97433.25
2023-04-02T03:24:04.934Z,97443.59
2023-04-02T03:26:41.127Z,97440.66
2023-04-02T03:29:27.013Z,97452.03
2023-04-02T03:32:19.218Z,97448.09
2023-04-02T03:34:58.729Z,97458.22
2023-04-02T03:37:33.321Z,97459.47
2023-04-02T03:40:04.538Z,97465.16
2023-04-02T03:43:06.478Z,97471.31
2023-04-02T03:45:40.464Z,97470.06
2023-04-02T03:48:41.284Z,97477.69
2023-04-02T03:51:37.504Z,97489.78
2023-04-02T03:54:05.267Z,97493.72
2023-04-02T03:56:39.717Z,97495.22
2023-04-02T03:59:38.562Z,97507.78
2023-04-02T04:02:19.621Z,97512.22
2023-04-02T04:04:48.099Z,97517.38
2023-04-02T04:07:33.638Z,97518.88
2023-04-02T04:10:01.659Z,97524.31
2023-04-02T04:12:36.129Z,97537.13
2023-04-02T04:15:16.231Z,97545.75
2023-04-02T04:18:02.454Z,97552.38
2023-04-02T04:20:35.043Z,97554.34
2023-04-02T04:23:29.968Z,97551.88
2023-04-02T04:26:19.819Z,97570.34
2023-04-02T04:29:23.816Z,97580.44
2023-04-02T04:31:55.225Z,97583.63
2023-04-02T04:34:29.978Z,97585.13
2023-04-02T04:37:02.207Z,97588.56
2023-04-02T04:39:54.375Z,97597.19
2023-04-02T04:42:25.789Z,97601.84
2023-04-02T04:45:24.130Z,97614.41
2023-04-02T04:47:57.960Z,97627.94
2023-04-02T04:50:38.801Z,97634.56
2023-04-02T04:53:15.907Z,97637.56
2023-04-02T04:55:44.298Z,97642.97
2023-04-02T04:58:14.778Z,97648.38
2023-04-02T05:00:53.301Z,97657.47
2023-04-02T05:03:51.444Z,97654.00
2023-04-02T05:06:24.779Z,97667.28
2023-04-02T05:08:52.767Z,97670.53
2023-04-02T05:11:26.369Z,97681.84
2023-04-02T05:13:58.094Z,97682.59
2023-04-02T05:16:27.122Z,97678.38
2023-04-02T05:19:09.050Z,97691.16
2023-04-02T05:21:49.742Z,97698.06
2023-04-02T05:24:41.770Z,97705.69
2023-04-02T05:27:23.727Z,97707.69
2023-04-02T05:29:57.674Z,97709.38
2023-04-02T05:32:33.338Z,97716.50
2023-04-02T05:35:00.516Z,97721.91
2023-04-02T05:37:29.547Z,97722.91
2023-04-02T05:39:59.320Z,97733.47
2023-04-02T05:42:31.245Z,97732.97
2023-04-02T05:45:13.485Z,97744.59
2023-04-02T05:47:43.274Z,97738.63
2023-04-02T05:50:37.714Z,97742.03
2023-04-02T05:53:17.879Z,97751.09
2023-04-02T05:55:52.456Z,97759.47
2023-04-02T05:58:37.033Z,97764.38
2023-04-02T06:01:12.391Z,97770.97
2023-04-02T06:03:46.206Z,97780.75
2023-04-02T06:06:23.327Z,97784.69
2023-04-02T06:08:56.496Z,97788.38
2023-04-02T06:11:28.746Z,97792.00
2023-04-02T06:13:56.154Z,97798.09
2023-04-02T06:16:26.670Z,97800.00
2023-04-02T06:18:54.338Z,97809.81
2023-04-02T06:21:22.387Z,97813.28
2023-04-02T06:23:54.919Z,97814.97
2023-04-02T06:26:34.472Z,97819.66
2023-04-02T06:29:07.079Z,97833.84
2023-04-02T06:31:51.217Z,97835.00
2023-04-02T06:34:20.628Z,97838.44
2023-04-02T06:36:48.976Z,97844.00
2023-04-02T06:39:23.153Z,97852.28
2023-04-02T06:42:12.377Z,97862.59
2023-04-02T06:44:39.715Z,97866.28
2023-04-02T06:47:17.466Z,97862.09
2023-04-02T06:49:48.504Z,97875.63
2023-04-02T06:52:31.606Z,97889.06
2023-04-02T06:54:59.730Z,97885.84
2023-04-02T06:57:26.873Z,97897.41
2023-04-02T06:59:53.920Z,97897.13
2023-04-02T07:02:32.764Z,97910.19
2023-04-02T07:05:07.249Z,97904.47
2023-04-02T07:07:34.557Z,97910.44
2023-04-02T07:10:01.566Z,97920.03
2023-04-02T07:12:28.693Z,97919.84
2023-04-02T07:14:55.842Z,97924.97
2023-04-02T07:17:22.989Z,97931.84
2023-04-02T07:19:50.239Z,97934.38
2023-04-02T07:22:18.596Z,97942.75
2023-04-02T07:24:45.894Z,97950.38
2023-04-02T07:27:14.163Z,97944.78
2023-04-02T07:29:44.071Z,97959.22
2023-04-02T07:32:13.150Z,97962.16
2023-04-02T07:34:41.232Z,97966.81
2023-04-02T07:37:13.179Z,97973.97
2023-04-02T07:39:40.784Z,97977.72
2023-04-02T07:42:08.033Z,97974.53
2023-04-02T07:44:35.117Z,97993.94
2023-04-02T07:47:02.218Z,97996.81
2023-04-02T07:49:29.314Z,98003.94
2023-04-02T07:51:56.735Z,98001.69
2023-04-02T07:54:23.759Z,98012.03
2023-04-02T07:56:51.139Z,98011.22
2023-04-02T07:59:18.234Z,98030.88
2023-04-02T08:01:45.765Z,98032.50
2023-04-02T08:04:18.518Z,98033.72
2023-04-02T08:06:46.059Z,98036.41
2023-04-02T08:09:17.864Z,98042.03
2023-04-02T08:11:46.488Z,98050.94
2023-04-02T08:14:14.082Z,98048.44
2023-04-02T08:16:53.176Z,98054.69
2023-04-02T08:19:20.344Z,98056.28
2023-04-02T08:21:51.656Z,98054.25
2023-04-02T08:24:19.609Z,98064.94
2023-04-02T08:26:47.912Z,98067.84
2023-04-02T08:29:15.329Z,98070.28
2023-04-02T08:31:42.619Z,98072.25
2023-04-02T08:34:09.714Z,98084.25
2023-04-02T08:36:38.532Z,98092.16
2023-04-02T08:39:10.963Z,98100.75
2023-04-02T08:41:44.263Z,98093.94
2023-04-02T08:44:21.494Z,98105.22
2023-04-02T08:46:52.110Z,98115.75
2023-04-02T08:49:31.369Z,98114.72
2023-04-02T08:51:59.411Z,98115.28
2023-04-02T08:54:37.971Z,98125.81
2023-04-02T08:57:39.542Z,98125.25
2023-04-02T09:00:13.129Z,98132.44
2023-04-02T09:02:43.499Z,98136.34
2023-04-02T09:05:19.346Z,98145.66
2023-04-02T09:07:48.121Z,98136.63
2023-04-02T09:10:18.881Z,98148.72
2023-04-02T09:12:50.530Z,98142.28
2023-04-02T09:15:26.380Z,98151.63
2023-04-02T09:18:17.727Z,98153.09
2023-04-02T09:20:45.683Z,98155.16
2023-04-02T09:23:18.886Z,98163.75
2023-04-02T09:25:57.430Z,98168.22
2023-04-02T09:28:30.471Z,98169.06
2023-04-02T09:31:09.176Z,98178.28
2023-04-02T09:33:51.110Z,98181.81
2023-04-02T09:36:19.719Z,98179.41
2023-04-02T09:39:01.539Z,98189.75
2023-04-02T09:41:30.013Z,98186.84
2023-04-02T09:44:12.884Z,98196.94
2023-04-02T09:47:03.980Z,98191.13
2023-04-02T09:49:33.428Z,98207.09
2023-04-02T09:52:09.147Z,98218.38
2023-04-02T09:54:41.791Z,98214.72
2023-04-02T09:57:28.066Z,98228.81
2023-04-02T10:00:39.548Z,98229.94
2023-04-02T10:03:12.106Z,98232.44
2023-04-02T10:05:40.921Z,98248.19
2023-04-02T10:08:28.965Z,98238.81
2023-04-02T10:10:58.761Z,98254.44
2023-04-02T10:13:49.323Z,98253.91
2023-04-02T10:16:24.349Z,98267.03
2023-04-02T10:19:09.931Z,98278.31
2023-04-02T10:21:38.686Z,98282.38
2023-04-02T10:24:16.597Z,98278.19
2023-04-02T10:26:58.310Z,98277.72
2023-04-02T10:30:02.161Z,98297.03
2023-04-02T10:32:39.007Z,98300.41
2023-04-02T10:35:18.639Z,98293.78
2023-04-02T10:37:45.800Z,98306.88
2023-04-02T10:40:28.157Z,98306.66
2023-04-02T10:43:04.155Z,98312.06
2023-04-02T10:45:39.818Z,98304.25
2023-04-02T10:48:17.009Z,98310.22
2023-04-02T10:51:07.643Z,98311.44
2023-04-02T10:53:43.552Z,98323.16
2023-04-02T10:56:12.408Z,98318.69
2023-04-02T10:58:56.853Z,98334.94
2023-04-02T11:01:29.344Z,98337.28
2023-04-02T11:04:02.703Z,98335.47
2023-04-02T11:06:38.405Z,98346.47
2023-04-02T11:09:07.488Z,98355.53
2023-04-02T11:11:39.645Z,98360.06
2023-04-02T11:14:28.219Z,98366.84
2023-04-02T11:16:59.152Z,98368.06
2023-04-02T11:19:34.155Z,98381.13
2023-04-02T11:22:13.856Z,98380.38
2023-04-02T11:24:46.428Z,98374.88
2023-04-02T11:27:19.088Z,98381.31
2023-04-02T11:30:04.179Z,98375.16
2023-04-02T11:32:35.030Z,98384.00
2023-04-02T11:35:20.830Z,98391.50
2023-04-02T11:37:48.543Z,98386.38
2023-04-02T11:40:15.528Z,98384.88
2023-04-02T11:42:47.388Z,98390.09
2023-04-02T11:45:26.332Z,98395.34
2023-04-02T11:47:59.955Z,98396.66
2023-04-02T11:50:29.779Z,98403.88
2023-04-02T11:53:20.468Z,98410.81
2023-04-02T11:56:07.801Z,98413.22
2023-04-02T11:58:50.392Z,98411.56
2023-04-02T12:01:45.415Z,98413.81
2023-04-02T12:04:34.492Z,98421.03
2023-04-02T12:07:26.844Z,98424.50
2023-04-02T12:09:59.363Z,98427.78
2023-04-02T12:12:39.168Z,98436.94
2023-04-02T12:15:08.690Z,98434.69
2023-04-02T12:17:37.915Z,98432.72
2023-04-02T12:20:27.326Z,98437.25
2023-04-02T12:22:55.672Z,98441.00
2023-04-02T12:25:34.411Z,98435.44
2023-04-02T12:28:10.361Z,98448.03
2023-04-02T12:30:38.755Z,98447.56
2023-04-02T12:33:30.414Z,98443.47
2023-04-02T12:35:59.371Z,98448.69
2023-04-02T12:38:28.809Z,98461.31
2023-04-02T12:40:58.849Z,98467.34
2023-04-02T12:43:27.897Z,98469.50
2023-04-02T12:45:56.695Z,98475.06
2023-04-02T12:48:24.301Z,98474.03
2023-04-02T12:50:51.412Z,98477.03
2023-04-02T12:53:21.473Z,98482.72
2023-04-02T12:55:50.280Z,98481.81
2023-04-02T12:58:29.731Z,98488.25
2023-04-02T13:01:10.383Z,98494.69
2023-04-02T13:03:37.888Z,98485.06
2023-04-02T13:06:19.735Z,98487.03
2023-04-02T13:08:46.790Z,98491.69
2023-04-02T13:11:13.862Z,98495.44
2023-04-02T13:13:42.185Z,98495.00
2023-04-02T13:16:15.273Z,98494.06
2023-04-02T13:18:44.475Z,98494.94
2023-04-02T13:21:17.610Z,98501.38
2023-04-02T13:23:45.876Z,98506.31
2023-04-02T13:26:26.153Z,98504.19
2023-04-02T13:29:03.454Z,98507.94
2023-04-02T13:31:33.035Z,98512.72
2023-04-02T13:34:00.161Z,98507.41
2023-04-02T13:36:29.257Z,98506.03
2023-04-02T13:38:56.949Z,98512.75
2023-04-02T13:41:24.746Z,98514.34
2023-04-02T13:43:53.369Z,98511.50
2023-04-02T13:46:26.418Z,98512.31
2023-04-02T13:48:55.039Z,98516.56
2023-04-02T13:51:44.977Z,98522.25
2023-04-02T13:54:24.714Z,98521.50
2023-04-02T13:56:52.816Z,98529.16
2023-04-02T13:59:20.343Z,98530.66
2023-04-02T14:01:47.828Z,98529.44
2023-04-02T14:04:19.863Z,98530.91
2023-04-02T14:07:03.289Z,98539.03
2023-04-02T14:09:56.003Z,98541.75
2023-04-02T14:12:46.182Z,98537.38
2023-04-02T14:15:25.485Z,98543.09
2023-04-02T14:18:21.229Z,98544.84
2023-04-02T14:21:15.291Z,98545.59
2023-04-02T14:23:51.755Z,98549.63
2023-04-02T14:26:27.515Z,98555.53
2023-04-02T14:29:09.756Z,98557.00
2023-04-02T14:31:43.514Z,98554.31
2023-04-02T14:34:19.229Z,98554.47
2023-04-02T14:37:01.530Z,98560.06
2023-04-02T14:39:47.967Z,98553.63
2023-04-02T14:42:24.477Z,98559.88
2023-04-02T14:45:08.994Z,98561.81
2023-04-02T14:47:53.300Z,98564.53
2023-04-02T14:50:27.939Z,98566.78
2023-04-02T14:52:58.694Z,98559.88
2023-04-02T14:55:38.044Z,98566.47
2023-04-02T14:58:11.416Z,98567.06
2023-04-02T15:00:42.140Z,98576.19
2023-04-02T15:03:17.059Z,98584.16
2023-04-02T15:05:54.189Z,98582.00
2023-04-02T15:08:38.731Z,98576.88
2023-04-02T15:11:17.472Z,98572.97
2023-04-02T15:14:23.479Z,98581.84
2023-04-02T15:16:51.064Z,98582.59
2023-04-02T15:19:19.081Z,98589.31
2023-04-02T15:22:08.871Z,98594.72
2023-04-02T15:24:43.809Z,98596.41
2023-04-02T15:27:25.254Z,98598.84
2023-04-02T15:30:02.368Z,98603.66
2023-04-02T15:32:32.550Z,98612.72
2023-04-02T15:35:12.989Z,98621.75
2023-04-02T15:37:49.330Z,98622.22
2023-04-02T15:40:34.963Z,98625.88
2023-04-02T15:43:18.886Z,98615.97
2023-04-02T15:46:07.489Z,98617.63
2023-04-02T15:48:55.842Z,98627.13
2023-04-02T15:51:41.279Z,98636.75
2023-04-02T15:54:39.156Z,98636.09
2023-04-02T15:57:30.256Z,98643.78
2023-04-02T16:00:21.030Z,98646.81
2023-04-02T16:03:09.960Z,98650.44
2023-04-02T16:06:11.204Z,98655.84
2023-04-02T16:08:59.111Z,98647.72
2023-04-02T16:11:27.359Z,98651.66
2023-04-02T16:14:03.706Z,98656.31
2023-04-02T16:16:32.996Z,98657.66
2023-04-02T16:19:03.771Z,98659.31
2023-04-02T16:21:38.719Z,98668.53
2023-04-02T16:24:12.500Z,98665.97
2023-04-02T16:26:48.079Z,98674.28
2023-04-02T16:29:21.126Z,98677.72
2023-04-02T16:32:05.759Z,98685.09
2023-04-02T16:37:45.641Z,98684.91
2023-04-02T16:40:33.604Z,98688.09
2023-04-02T16:43:10.011Z,98692.56
2023-04-02T16:45:58.911Z,98698.00
2023-04-02T16:48:47.157Z,98694.38
2023-04-02T16:51:26.034Z,98698.31
2023-04-02T16:54:12.130Z,98705.81
2023-04-02T16:56:48.489Z,98715.91
2023-04-02T16:59:27.423Z,98714.41
2023-04-02T17:02:20.527Z,98725.97
2023-04-02T17:04:58.619Z,98730.94
2023-04-02T17:07:36.261Z,98729.16
2023-04-02T17:10:31.236Z,98734.38
2023-04-02T17:13:02.612Z,98736.34
2023-04-02T17:15:39.585Z,98737.84
2023-04-02T17:18:21.520Z,98743.56
2023-04-02T17:20:48.661Z,98740.69
2023-04-02T17:23:17.361Z,98740.97
2023-04-02T17:25:48.835Z,98745.34
2023-04-02T17:28:25.207Z,98744.31
2023-04-02T17:30:55.856Z,98747.00
2023-04-02T17:33:26.986Z,98741.59
2023-04-02T17:36:00.257Z,98748.50
2023-04-02T17:39:09.994Z,98760.38
2023-04-02T17:41:44.490Z,98760.84
2023-04-02T17:44:24.383Z,98757.84
2023-04-02T17:46:54.165Z,98762.50
2023-04-02T17:49:46.964Z,98760.97
2023-04-02T17:52:31.365Z,98760.97
2023-04-02T17:55:18.392Z,98763.25
2023-04-02T17:58:18.514Z,98768.50
2023-04-02T18:00:58.787Z,98770.75
2023-04-02T18:03:42.076Z,98773.16
2023-04-02T18:06:40.583Z,98780.81
2023-04-02T18:09:16.730Z,98790.44
2023-04-02T18:12:13.052Z,98777.22
2023-04-02T18:15:15.554Z,98788.78
2023-04-02T18:17:47.113Z,98794.34
2023-04-02T18:20:30.397Z,98795.72
2023-04-02T18:23:23.615Z,98799.63
2023-04-02T18:26:09.488Z,98802.31
2023-04-02T18:29:01.385Z,98807.31
2023-04-02T18:31:51.000Z,98802.19
2023-04-02T18:34:30.029Z,98802.00
2023-04-02T18:37:08.720Z,98814.94
2023-04-02T18:40:03.799Z,98823.97
2023-04-02T18:42:53.577Z,98829.69
2023-04-02T18:45:34.524Z,98826.81
2023-04-02T18:48:20.896Z,98825.03
2023-04-02T18:50:48.838Z,98833.13
2023-04-02T18:53:18.775Z,98839.31
2023-04-02T18:55:49.675Z,98832.53
2023-04-02T18:58:32.397Z,98841.09
2023-04-02T19:01:00.068Z,98838.25
2023-04-02T19:03:33.119Z,98847.84
2023-04-02T19:06:06.645Z,98839.28
2023-04-02T19:08:48.231Z,98842.72
2023-04-02T19:11:20.201Z,98848.75
2023-04-02T19:13:48.937Z,98854.78
2023-04-02T19:16:28.056Z,98845.91
2023-04-02T19:19:01.706Z,98855.53
2023-04-02T19:22:19.882Z,98858.41
2023-04-02T19:25:05.096Z,98864.84
2023-04-02T19:28:00.303Z,98864.84
2023-04-02T19:30:47.496Z,98871.75
2023-04-02T19:33:20.898Z,98868.78
2023-04-02T19:35:54.028Z,98871.94
2023-04-02T19:38:39.980Z,98875.97
2023-04-02T19:41:40.281Z,98875.50
2023-04-02T19:44:12.643Z,98880.19
2023-04-02T19:46:40.958Z,98879.44
2023-04-02T19:49:16.872Z,98881.84
2023-04-02T19:51:43.960Z,98888.00
2023-04-02T19:54:11.256Z,98888.28
2023-04-02T19:56:38.449Z,98883.34
2023-04-02T19:59:17.171Z,98887.56
2023-04-02T20:01:46.053Z,98887.88
2023-04-02T20:04:13.423Z,98885.91
2023-04-02T20:06:40.685Z,98880.19
2023-04-02T20:09:08.718Z,98883.19
2023-04-02T20:11:37.129Z,98892.38
2023-04-02T20:14:04.239Z,98886.19
2023-04-02T20:16:31.494Z,98886.19
2023-04-02T20:18:58.754Z,98886.94
2023-04-02T20:21:27.434Z,98898.53
2023-04-02T20:23:55.524Z,98899.28
2023-04-02T20:26:23.360Z,98895.06
2023-04-02T20:28:50.547Z,98898.25
2023-04-02T20:31:18.596Z,98906.03
2023-04-02T20:33:46.562Z,98908.16
2023-04-02T20:36:16.013Z,98905.19
2023-04-02T20:38:43.462Z,98906.53
2023-04-02T20:41:10.843Z,98910.59
2023-04-02T20:43:40.392Z,98919.00
2023-04-02T20:46:10.016Z,98916.59
2023-04-02T20:48:38.384Z,98921.09
2023-04-02T20:51:07.300Z,98929.38
2023-04-02T20:53:35.961Z,98929.56
2023-04-02T20:56:05.727Z,98935.09
2023-04-02T20:58:33.297Z,98936.16
2023-04-02T21:01:13.912Z,98940.06
2023-04-02T21:03:41.205Z,98940.38
2023-04-02T21:06:35.763Z,98944.13
2023-04-02T21:09:07.709Z,98951.22
2023-04-02T21:11:36.207Z,98945.63
2023-04-02T21:14:04.166Z,98940.50
2023-04-02T21:16:32.050Z,98954.50
2023-04-02T21:19:01.318Z,98946.56
2023-04-02T21:21:28.737Z,98954.22
2023-04-02T21:24:01.121Z,98953.75
2023-04-02T21:26:30.109Z,98955.25
2023-04-02T21:28:57.660Z,98959.75
2023-04-02T21:31:27.079Z,98967.13
2023-04-02T21:33:56.744Z,98959.31
2023-04-02T21:36:24.891Z,98959.31
2023-04-02T21:38:54.453Z,98960.84
2023-04-02T21:41:29.589Z,98970.91
2023-04-02T21:43:58.002Z,98967.44
2023-04-02T21:46:27.910Z,98972.84
2023-04-02T21:48:58.042Z,98963.53
2023-04-02T21:51:27.865Z,98975.53
2023-04-02T21:53:55.431Z,98974.03
2023-04-02T21:56:28.450Z,98981.88
2023-04-02T21:58:56.976Z,98978.41
2023-04-02T22:01:28.087Z,98972.53
2023-04-02T22:03:56.331Z,98973.16
2023-04-02T22:06:24.908Z,98976.75
2023-04-02T22:09:00.322Z,98980.97
2023-04-02T22:11:32.907Z,98980.81
2023-04-02T22:14:00.127Z,98982.78
2023-04-02T22:16:29.025Z,98980.38
2023-04-02T22:18:58.211Z,98980.66
2023-04-02T22:21:25.931Z,98986.66
2023-04-02T22:23:53.570Z,98986.81
2023-04-02T22:26:22.984Z,98991.19
2023-04-02T22:28:52.610Z,98986.66
2023-04-02T22:31:23.514Z,98995.69
2023-04-02T22:33:51.767Z,98994.94
2023-04-02T22:36:19.349Z,98995.69
2023-04-02T22:38:46.516Z,99000.34
2023-04-02T22:41:28.616Z,98995.97
2023-04-02T22:43:56.577Z,98999.88
2023-04-02T22:46:25.434Z,98997.00
2023-04-02T22:48:52.983Z,99009.19
2023-04-02T22:51:21.664Z,99006.31
2023-04-02T22:53:49.189Z,99008.25
2023-04-02T22:56:18.789Z,99002.56
2023-04-02T22:58:46.271Z,99003.75
2023-04-02T23:01:31.950Z,99003.44
2023-04-02T23:03:59.162Z,99004.91
2023-04-02T23:06:27.137Z,99012.41
2023-04-02T23:08:54.247Z,99020.53
2023-04-02T23:11:27.343Z,99012.56
2023-04-02T23:13:56.583Z,99020.53
2023-04-02T23:16:26.833Z,99023.25
2023-04-02T23:18:55.447Z,99023.81
2023-04-02T23:21:23.851Z,99023.81
2023-04-02T23:23:51.422Z,99030.25
2023-04-02T23:26:21.688Z,99026.47
2023-04-02T23:28:49.583Z,99032.91
2023-04-02T23:31:19.041Z,99031.09
2023-04-02T23:33:46.327Z,99022.25
2023-04-02T23:36:19.422Z,99034.69
2023-04-02T23:38:46.512Z,99023.13
2023-04-02T23:41:14.877Z,99030.34
2023-04-02T23:43:42.099Z,99027.66
2023-04-02T23:46:09.333Z,99032.31
2023-04-02T23:48:36.378Z,99028.66
2023-04-02T23:51:03.452Z,99028.91
2023-04-02T23:53:30.518Z,99039.44
2023-04-02T23:55:57.714Z,99032.63
2023-04-02T23:58:24.786Z,99031.59
